Time;durP1;ratioP1;P1;durP2;ratioP2;P2;SDS_P1;SDS_P2;PMS_P1;PMS_P2;Temp;Humidity;BMP_temperature;BMP_pressure;BME280_temperature;BME280_humidity;BME280_pressure;Samples;Min_cycle;Max_cycle;Signal;HPM_P1;HPM_P2
2023/03/08 00:01:16;;;;;;;26.35;20.17;;;11.50;83.70;;;;;;10702412;33;20067;-72
2023/03/08 00:07:18;;;;;;;20.92;14.48;;;11.50;84.00;;;;;;10702365;33;20025;-72
2023/03/08 00:13:22;;;;;;;19.25;13.80;;;11.40;84.00;;;;;;10714003;33;20055;-72
2023/03/08 00:19:24;;;;;;;20.05;14.15;;;11.40;84.30;;;;;;10742850;33;20033;-72
2023/03/08 00:25:26;;;;;;;12.18;9.65;;;11.30;84.20;;;;;;10788606;27;20047;-72
2023/03/08 00:31:28;;;;;;;21.98;14.02;;;11.20;84.00;;;;;;10764009;33;20039;-72
2023/03/08 00:37:30;;;;;;;13.45;10.75;;;11.30;83.50;;;;;;10789952;33;20199;-72
2023/03/08 00:43:33;;;;;;;28.75;21.40;;;11.00;83.70;;;;;;10789876;33;20496;-72
2023/03/08 00:49:37;;;;;;;21.85;16.60;;;11.20;83.50;;;;;;10776877;33;20331;-73
2023/03/08 00:55:51;;;;;;;13.00;10.07;;;11.10;83.70;;;;;;10788822;33;20020;-73
2023/03/08 01:01:53;;;;;;;15.88;11.73;;;11.20;84.20;;;;;;10790325;33;20307;-72
2023/03/08 01:07:55;;;;;;;16.83;9.40;;;10.80;83.70;;;;;;10789721;33;20016;-73
2023/03/08 01:13:58;;;;;;;18.70;10.57;;;10.50;84.10;;;;;;10774798;33;20047;-73
2023/03/08 01:20:00;;;;;;;18.40;13.13;;;10.30;84.40;;;;;;10787607;33;20019;-73
2023/03/08 01:26:14;;;;;;;17.10;14.43;;;10.50;84.30;;;;;;10775687;33;20390;-73
2023/03/08 01:32:17;;;;;;;19.70;14.85;;;10.60;83.80;;;;;;10789769;33;20029;-73
2023/03/08 01:38:19;;;;;;;18.90;14.87;;;10.70;83.70;;;;;;10785029;33;20054;-73
2023/03/08 01:44:24;;;;;;;14.27;10.90;;;10.70;83.50;;;;;;10787699;33;20051;-73
2023/03/08 01:50:26;;;;;;;13.82;9.82;;;10.60;83.30;;;;;;10774779;33;20043;-73
2023/03/08 01:56:28;;;;;;;18.60;12.07;;;10.60;83.20;;;;;;10788093;33;20008;-73
2023/03/08 02:02:43;;;;;;;13.90;9.55;;;10.50;83.30;;;;;;10787103;33;20048;-73
2023/03/08 02:08:45;;;;;;;22.75;17.23;;;10.60;83.10;;;;;;10787158;33;20016;-73
2023/03/08 02:14:48;;;;;;;16.37;11.32;;;10.50;83.10;;;;;;10761338;33;20028;-73
2023/03/08 02:20:50;;;;;;;18.40;14.25;;;10.50;83.40;;;;;;10774645;33;20491;-73
2023/03/08 02:27:06;;;;;;;13.93;10.75;;;10.40;83.40;;;;;;10787538;33;20071;-73
2023/03/08 02:33:09;;;;;;;18.25;14.25;;;10.40;83.30;;;;;;10794149;33;20326;-73
2023/03/08 02:39:11;;;;;;;15.20;10.07;;;10.20;83.30;;;;;;10780915;33;20379;-73
2023/03/08 02:45:12;;;;;;;23.08;20.67;;;10.20;83.10;;;;;;10792628;33;20051;-73
2023/03/08 02:51:14;;;;;;;13.27;8.65;;;10.20;83.10;;;;;;10778598;33;20067;-73
2023/03/08 02:57:17;;;;;;;12.55;9.32;;;10.20;82.90;;;;;;10792183;33;20020;-73
2023/03/08 03:03:19;;;;;;;12.57;8.55;;;10.00;82.80;;;;;;10792224;33;20024;-73
2023/03/08 03:09:24;;;;;;;15.25;11.23;;;10.00;82.90;;;;;;10791949;33;20020;-73
2023/03/08 03:15:27;;;;;;;21.25;16.65;;;10.00;82.80;;;;;;10791177;33;20016;-73
2023/03/08 03:21:30;;;;;;;15.82;11.00;;;9.90;82.60;;;;;;10791434;33;20021;-73
2023/03/08 03:27:32;;;;;;;18.62;13.85;;;9.90;82.50;;;;;;10792077;33;20016;-73
2023/03/08 03:33:34;;;;;;;21.33;16.92;;;9.90;82.50;;;;;;10778235;33;20020;-73
2023/03/08 03:39:37;;;;;;;16.73;13.68;;;9.70;82.80;;;;;;10777125;33;20037;-73
2023/03/08 03:45:40;;;;;;;16.27;13.45;;;9.70;83.00;;;;;;10791560;33;20398;-73
2023/03/08 03:51:43;;;;;;;19.05;14.93;;;9.70;83.30;;;;;;10790763;33;20017;-73
2023/03/08 03:57:46;;;;;;;16.12;11.77;;;9.80;83.50;;;;;;10791718;33;20055;-73
2023/03/08 04:03:49;;;;;;;24.77;16.40;;;9.90;83.30;;;;;;10790342;33;20043;-73
2023/03/08 04:09:52;;;;;;;13.38;9.45;;;9.90;83.40;;;;;;10790253;33;20020;-73
2023/03/08 04:15:54;;;;;;;15.82;11.57;;;9.80;83.00;;;;;;10790626;33;20013;-73
2023/03/08 04:21:57;;;;;;;14.07;9.95;;;9.80;82.80;;;;;;10789757;33;20021;-73
2023/03/08 04:27:59;;;;;;;12.88;9.20;;;9.80;82.60;;;;;;10786215;33;20028;-73
2023/03/08 04:34:02;;;;;;;16.45;11.43;;;9.50;82.50;;;;;;10775818;33;20043;-73
2023/03/08 04:40:08;;;;;;;18.90;12.50;;;9.30;83.10;;;;;;10775865;33;20051;-73
2023/03/08 04:46:12;;;;;;;11.40;8.05;;;9.30;83.20;;;;;;10785644;33;20063;-73
2023/03/08 04:52:14;;;;;;;12.90;9.35;;;9.30;83.10;;;;;;10786669;33;20024;-73
2023/03/08 04:58:17;;;;;;;14.27;8.98;;;9.20;82.90;;;;;;10788912;33;20028;-73
2023/03/08 05:04:21;;;;;;;20.02;13.60;;;8.90;82.70;;;;;;10785989;33;20067;-73
2023/03/08 05:10:23;;;;;;;19.55;13.40;;;8.80;83.30;;;;;;10788475;33;20054;-73
2023/03/08 05:16:26;;;;;;;22.27;15.27;;;9.20;83.30;;;;;;10789544;33;20020;-73
2023/03/08 05:22:28;;;;;;;15.73;11.00;;;9.50;82.90;;;;;;10788696;33;20024;-73
2023/03/08 05:28:32;;;;;;;14.10;12.18;;;9.70;82.50;;;;;;10788150;33;20071;-73
2023/03/08 05:34:34;;;;;;;19.27;10.90;;;9.60;82.10;;;;;;10788466;33;20020;-73
2023/03/08 05:40:38;;;;;;;20.88;14.10;;;9.70;82.50;;;;;;10788327;33;20020;-73
2023/03/08 05:46:41;;;;;;;13.30;9.10;;;10.00;81.90;;;;;;10786160;33;20371;-73
2023/03/08 05:52:44;;;;;;;14.35;10.40;;;10.20;81.70;;;;;;10788087;33;20043;-73
2023/03/08 05:58:51;;;;;;;19.42;13.38;;;10.10;81.40;;;;;;10787354;33;20021;-73
2023/03/08 06:04:54;;;;;;;21.08;15.40;;;9.90;81.30;;;;;;10766104;33;20342;-73
2023/03/08 06:10:57;;;;;;;13.00;9.65;;;10.20;81.50;;;;;;10793700;33;20021;-73
2023/03/08 06:16:59;;;;;;;13.25;10.77;;;10.40;81.40;;;;;;10792084;33;20047;-73
2023/03/08 06:23:11;;;;;;;16.42;11.82;;;10.60;81.70;;;;;;10793116;33;20028;-73
2023/03/08 06:29:13;;;;;;;12.18;9.10;;;10.80;81.20;;;;;;10793039;33;20013;-73
2023/03/08 06:35:16;;;;;;;10.02;7.68;;;10.70;80.70;;;;;;10791740;33;20065;-73
2023/03/08 06:41:20;;;;;;;17.35;13.05;;;10.60;80.80;;;;;;10793082;33;20436;-73
2023/03/08 06:47:23;;;;;;;14.55;10.60;;;10.80;81.00;;;;;;10793787;33;20021;-73
2023/03/08 06:53:25;;;;;;;16.02;13.27;;;11.00;80.50;;;;;;10792306;33;20039;-73
2023/03/08 06:59:28;;;;;;;17.10;13.57;;;11.10;81.00;;;;;;10789126;33;20036;-73
2023/03/08 07:05:30;;;;;;;16.33;11.98;;;11.30;81.30;;;;;;10804581;33;20020;-74
2023/03/08 07:11:33;;;;;;;12.75;8.52;;;11.40;81.00;;;;;;10807208;33;20032;-73
2023/03/08 07:17:35;;;;;;;13.65;11.02;;;11.30;80.80;;;;;;10775216;32;20066;-73
2023/03/08 07:23:37;;;;;;;30.50;14.57;;;11.20;81.60;;;;;;10765847;33;20032;-73
2023/03/08 07:29:39;;;;;;;15.63;11.68;;;11.40;82.10;;;;;;10737029;33;20213;-73
2023/03/08 07:35:41;;;;;;;13.75;10.05;;;11.70;82.70;;;;;;10753622;33;20052;-73
2023/03/08 07:41:43;;;;;;;18.80;13.93;;;11.90;83.30;;;;;;10751279;33;20020;-73
2023/03/08 07:47:48;;;;;;;12.95;9.40;;;12.20;83.20;;;;;;10754904;33;20047;-73
2023/03/08 07:53:51;;;;;;;15.18;9.77;;;12.20;83.10;;;;;;10754247;33;20009;-72
2023/03/08 07:59:53;;;;;;;14.80;10.45;;;12.30;83.30;;;;;;10752145;33;20025;-73
2023/03/08 08:05:55;;;;;;;13.40;11.10;;;12.50;83.70;;;;;;10754320;33;20354;-73
2023/03/08 08:11:57;;;;;;;14.73;11.27;;;12.60;83.50;;;;;;10754149;33;20043;-73
2023/03/08 08:17:59;;;;;;;13.25;11.75;;;12.60;83.60;;;;;;10753258;33;20017;-73
2023/03/08 08:24:01;;;;;;;15.73;11.70;;;12.40;83.90;;;;;;10706434;27;6940773;-73
2023/03/08 08:30:05;;;;;;;15.23;10.02;;;12.20;83.60;;;;;;10982042;32;20007;-73
2023/03/08 08:36:13;;;;;;;14.87;10.90;;;11.90;84.70;;;;;;10979942;32;20048;-73
2023/03/08 08:42:15;;;;;;;10.18;8.45;;;12.20;85.00;;;;;;10981724;32;20046;-73
2023/03/08 08:48:17;;;;;;;14.00;11.98;;;12.30;84.90;;;;;;10982149;32;20050;-73
2023/03/08 08:54:19;;;;;;;12.52;8.13;;;12.40;85.00;;;;;;10980844;32;20042;-73
2023/03/08 09:00:21;;;;;;;23.90;19.25;;;12.30;84.90;;;;;;10981065;32;20337;-73
2023/03/08 09:06:25;;;;;;;22.73;12.37;;;12.20;85.20;;;;;;10980315;32;20041;-73
2023/03/08 09:12:28;;;;;;;19.65;12.20;;;12.10;85.70;;;;;;10979550;32;20046;-73
2023/03/08 09:18:31;;;;;;;12.20;9.40;;;12.20;85.80;;;;;;10979517;32;20027;-73
2023/03/08 09:24:33;;;;;;;18.62;12.65;;;12.30;86.00;;;;;;10979913;32;20049;-72
2023/03/08 09:30:35;;;;;;;13.90;9.40;;;12.40;85.90;;;;;;10979699;32;20019;-73
2023/03/08 09:36:40;;;;;;;17.95;8.82;;;12.50;85.90;;;;;;10979503;32;20023;-73
2023/03/08 09:42:43;;;;;;;28.90;21.35;;;12.70;85.90;;;;;;10979838;32;20054;-72
2023/03/08 09:48:48;;;;;;;13.38;9.48;;;12.70;86.10;;;;;;10979323;32;20037;-72
2023/03/08 09:54:53;;;;;;;15.55;8.80;;;12.80;86.20;;;;;;10979055;32;20042;-72
2023/03/08 10:01:50;;;;;;;30.90;17.67;;;12.90;86.10;;;;;;10968848;32;20018;-72
2023/03/08 10:08:17;;;;;;;18.77;12.30;;;13.10;86.00;;;;;;10979294;32;20046;-72
2023/03/08 10:14:30;;;;;;;15.30;12.75;;;13.20;86.00;;;;;;10979943;32;20049;-72
2023/03/08 10:20:36;;;;;;;11.82;9.20;;;13.20;85.50;;;;;;10960658;32;20062;-72
2023/03/08 10:26:40;;;;;;;14.73;11.40;;;13.30;85.20;;;;;;10979024;32;20022;-72
2023/03/08 10:32:46;;;;;;;31.90;21.67;;;13.30;85.30;;;;;;10974953;32;20050;-72
2023/03/08 10:38:58;;;;;;;19.25;11.00;;;13.40;85.00;;;;;;10978686;32;20404;-72
2023/03/08 10:45:15;;;;;;;13.95;8.65;;;13.40;85.30;;;;;;10965328;32;20015;-73
2023/03/08 10:51:19;;;;;;;13.98;10.40;;;13.70;85.10;;;;;;10983914;32;20443;-73
2023/03/08 10:57:29;;;;;;;14.75;12.63;;;13.80;84.90;;;;;;10984927;32;20130;-73
2023/03/08 11:03:32;;;;;;;20.70;16.42;;;13.80;85.10;;;;;;10985582;32;20018;-73
2023/03/08 11:09:35;;;;;;;27.65;19.60;;;13.80;85.00;;;;;;10985021;32;20018;-73
2023/03/08 11:15:41;;;;;;;17.95;12.18;;;13.90;84.40;;;;;;10971266;32;20026;-71
2023/03/08 11:22:16;;;;;;;11.70;9.27;;;13.90;84.90;;;;;;10984835;32;20046;-71
2023/03/08 11:29:04;;;;;;;18.80;11.70;;;13.90;84.40;;;;;;10985132;32;20027;-71
2023/03/08 11:35:23;;;;;;;16.37;9.63;;;13.90;84.30;;;;;;10981017;32;20010;-71
2023/03/08 11:41:43;;;;;;;10.13;7.57;;;13.90;84.20;;;;;;10971599;32;20053;-71
2023/03/08 11:48:17;;;;;;;26.70;13.25;;;14.00;83.90;;;;;;10984461;32;20014;-70
2023/03/08 11:54:53;;;;;;;13.68;9.70;;;14.00;83.90;;;;;;10979812;32;20322;-71
2023/03/08 12:01:13;;;;;;;16.15;9.20;;;14.10;83.70;;;;;;10981822;32;20400;-71
2023/03/08 12:07:34;;;;;;;18.02;10.60;;;14.30;84.00;;;;;;10953524;32;20039;-71
2023/03/08 12:13:40;;;;;;;13.43;8.55;;;14.70;83.60;;;;;;10980658;32;20027;-71
2023/03/08 12:19:45;;;;;;;12.48;8.85;;;15.00;82.50;;;;;;10950603;32;20070;-71
2023/03/08 12:25:56;;;;;;;16.67;11.50;;;15.20;80.60;;;;;;10981464;32;20041;-71
2023/03/08 12:32:02;;;;;;;16.77;8.77;;;15.30;81.50;;;;;;10966666;32;20050;-71
2023/03/08 12:38:25;;;;;;;8.75;6.87;;;15.30;82.00;;;;;;10980884;32;20038;-71
2023/03/08 12:44:29;;;;;;;19.48;9.85;;;15.40;81.90;;;;;;10982787;32;20065;-71
2023/03/08 12:50:46;;;;;;;16.20;10.15;;;15.50;80.50;;;;;;10980922;32;20022;-71
2023/03/08 12:56:54;;;;;;;17.12;9.38;;;15.50;82.00;;;;;;10968423;32;20014;-71
2023/03/08 13:03:05;;;;;;;15.50;10.00;;;15.60;80.90;;;;;;10980599;32;20023;-71
2023/03/08 13:09:51;;;;;;;21.40;16.70;;;15.70;80.10;;;;;;10979933;32;20336;-71
2023/03/08 13:16:31;;;;;;;10.50;8.02;;;16.20;78.80;;;;;;10886863;32;20426;-71
2023/03/08 13:22:54;;;;;;;22.87;12.85;;;16.60;77.80;;;;;;10980341;32;20090;-71
2023/03/08 13:28:56;;;;;;;21.65;18.77;;;16.70;77.20;;;;;;10979658;32;20015;-71
2023/03/08 13:35:00;;;;;;;14.85;10.02;;;16.60;75.90;;;;;;10976097;32;20015;-71
2023/03/08 13:41:02;;;;;;;19.85;14.02;;;16.40;76.40;;;;;;10980796;32;20026;-71
2023/03/08 13:47:31;;;;;;;14.45;9.18;;;16.30;78.00;;;;;;10985815;32;20029;-71
2023/03/08 13:53:36;;;;;;;12.45;8.90;;;16.40;79.00;;;;;;10980091;32;20053;-71
2023/03/08 13:59:48;;;;;;;9.95;6.30;;;16.60;78.10;;;;;;10978973;32;20022;-71
2023/03/08 14:05:50;;;;;;;14.60;9.18;;;16.90;77.70;;;;;;10962852;32;20049;-71
2023/03/08 14:12:03;;;;;;;16.37;11.48;;;16.90;76.70;;;;;;10967464;32;20399;-71
2023/03/08 14:18:07;;;;;;;28.00;22.62;;;16.80;75.30;;;;;;10965897;32;20031;-71
2023/03/08 14:24:20;;;;;;;15.85;10.85;;;16.70;77.90;;;;;;10981150;32;20054;-71
2023/03/08 14:30:24;;;;;;;16.67;12.55;;;16.60;77.80;;;;;;10986103;32;20018;-72
2023/03/08 14:36:29;;;;;;;13.10;9.82;;;16.70;78.30;;;;;;10971803;32;20027;-73
2023/03/08 14:42:39;;;;;;;16.85;10.68;;;16.70;78.60;;;;;;10984434;32;20049;-73
2023/03/08 14:48:41;;;;;;;16.98;13.43;;;16.70;79.20;;;;;;10983104;32;20053;-73
2023/03/08 14:54:43;;;;;;;22.30;18.23;;;16.60;79.00;;;;;;10985668;32;20077;-73
2023/03/08 15:00:56;;;;;;;23.87;14.50;;;16.40;79.60;;;;;;10983014;32;20034;-73
2023/03/08 15:06:58;;;;;;;26.75;18.35;;;16.20;79.60;;;;;;10985748;32;20037;-73
2023/03/08 15:13:01;;;;;;;29.40;21.55;;;16.00;79.70;;;;;;10969872;32;20057;-73
2023/03/08 15:19:03;;;;;;;15.68;12.37;;;15.70;79.70;;;;;;10979901;32;20058;-73
2023/03/08 15:25:24;;;;;;;17.55;13.65;;;15.50;79.50;;;;;;10970665;32;20026;-73
2023/03/08 15:31:26;;;;;;;15.07;11.93;;;15.50;79.80;;;;;;10957306;32;20057;-73
2023/03/08 15:37:29;;;;;;;24.48;15.32;;;15.50;80.10;;;;;;10983696;32;20019;-73
2023/03/08 15:43:32;;;;;;;22.50;18.37;;;15.40;80.10;;;;;;10984661;32;20317;-73
2023/03/08 15:49:34;;;;;;;16.58;11.25;;;15.30;79.50;;;;;;10979763;32;20031;-73
2023/03/08 15:55:37;;;;;;;17.48;13.13;;;15.10;79.40;;;;;;10983578;32;20018;-73
2023/03/08 16:01:39;;;;;;;18.23;11.70;;;15.10;80.00;;;;;;10983932;32;20050;-73
2023/03/08 16:07:42;;;;;;;15.15;10.95;;;15.10;80.00;;;;;;10983175;32;20010;-73
2023/03/08 16:13:44;;;;;;;17.50;10.35;;;15.00;79.70;;;;;;10983938;32;20015;-73
2023/03/08 16:19:46;;;;;;;13.02;8.73;;;14.90;80.20;;;;;;10969123;32;20018;-72
2023/03/08 16:26:07;;;;;;;10.80;7.32;;;14.90;80.40;;;;;;10983099;27;20053;-73
2023/03/08 16:32:13;;;;;;;14.43;10.20;;;14.90;80.40;;;;;;10978127;32;20010;-73
2023/03/08 16:38:17;;;;;;;11.15;7.28;;;14.90;80.70;;;;;;10982540;32;20006;-73
2023/03/08 16:44:21;;;;;;;9.02;6.53;;;15.00;81.00;;;;;;10967897;32;20037;-70
2023/03/08 16:50:26;;;;;;;9.85;5.90;;;15.00;81.00;;;;;;10981278;32;20073;-71
2023/03/08 16:56:29;;;;;;;11.52;7.78;;;15.20;81.40;;;;;;10968048;32;20108;-71
2023/03/08 17:02:55;;;;;;;8.65;6.53;;;15.20;81.40;;;;;;10980455;32;20307;-73
2023/03/08 17:08:58;;;;;;;9.73;6.82;;;15.10;81.80;;;;;;10942950;32;20041;-73
2023/03/08 17:15:29;;;;;;;8.98;6.55;;;15.20;82.00;;;;;;10928866;32;20022;-73
2023/03/08 17:21:36;;;;;;;10.70;7.35;;;15.20;82.00;;;;;;10940324;32;20053;-73
2023/03/08 17:27:38;;;;;;;15.98;10.13;;;15.10;82.40;;;;;;10943423;32;20038;-73
2023/03/08 17:33:41;;;;;;;9.90;7.15;;;15.20;82.70;;;;;;10943293;32;20014;-73
2023/03/08 17:39:43;;;;;;;11.65;8.00;;;15.30;82.90;;;;;;10943155;32;20007;-73
2023/03/08 17:45:57;;;;;;;10.38;7.28;;;15.20;82.90;;;;;;10942235;32;20020;-73
2023/03/08 17:51:59;;;;;;;11.85;9.45;;;15.20;83.20;;;;;;10928924;32;20023;-73
2023/03/08 17:58:20;;;;;;;12.00;10.07;;;15.20;83.20;;;;;;10940959;32;20031;-73
2023/03/08 18:04:22;;;;;;;13.10;8.70;;;15.20;83.10;;;;;;10949084;32;20023;-73
2023/03/08 18:10:24;;;;;;;10.63;7.80;;;15.20;83.30;;;;;;10934932;32;20089;-73
2023/03/08 18:16:26;;;;;;;11.12;7.82;;;15.10;83.10;;;;;;10922544;32;20031;-72
2023/03/08 18:22:28;;;;;;;11.85;8.05;;;15.10;83.30;;;;;;10947831;32;20045;-73
2023/03/08 18:28:32;;;;;;;8.45;6.50;;;15.20;83.20;;;;;;10949148;32;20016;-72
2023/03/08 18:34:37;;;;;;;11.27;7.53;;;15.30;83.20;;;;;;10945880;32;20393;-72
2023/03/08 18:40:40;;;;;;;10.25;6.40;;;15.20;83.40;;;;;;10948697;32;20023;-72
2023/03/08 18:46:42;;;;;;;11.15;6.60;;;15.40;83.20;;;;;;10949157;32;20020;-72
2023/03/08 18:52:44;;;;;;;9.93;7.45;;;15.50;83.00;;;;;;10948359;32;20392;-72
2023/03/08 18:58:46;;;;;;;11.12;6.70;;;15.50;83.00;;;;;;10935798;32;20015;-72
2023/03/08 19:04:48;;;;;;;9.50;6.62;;;15.50;83.30;;;;;;10945448;32;20050;-72
2023/03/08 19:10:50;;;;;;;9.75;6.75;;;15.30;83.70;;;;;;10932132;32;20053;-72
2023/03/08 19:16:52;;;;;;;9.40;6.97;;;15.40;83.70;;;;;;10947403;32;20382;-72
2023/03/08 19:22:54;;;;;;;14.48;7.43;;;15.40;83.80;;;;;;10946510;32;20058;-72
2023/03/08 19:28:58;;;;;;;6.30;4.37;;;15.40;83.60;;;;;;10977264;32;20023;-72
2023/03/08 19:35:03;;;;;;;10.27;7.55;;;15.40;83.40;;;;;;10984488;32;20053;-72
2023/03/08 19:41:08;;;;;;;9.95;6.93;;;15.10;83.70;;;;;;10984430;32;20313;-72
2023/03/08 19:47:11;;;;;;;7.10;5.68;;;15.10;83.90;;;;;;10983808;32;20050;-72
2023/03/08 19:53:13;;;;;;;9.85;6.85;;;15.20;83.80;;;;;;10983101;32;20045;-72
2023/03/08 19:59:15;;;;;;;9.07;7.03;;;15.30;83.50;;;;;;10984001;32;20022;-72
2023/03/08 20:05:17;;;;;;;12.40;8.35;;;15.30;83.50;;;;;;10984007;32;20015;-73
2023/03/08 20:11:20;;;;;;;13.57;7.95;;;15.40;84.00;;;;;;10981295;32;20031;-73
2023/03/08 20:17:22;;;;;;;9.55;7.68;;;15.50;84.40;;;;;;10968373;32;20019;-72
2023/03/08 20:23:25;;;;;;;9.73;7.57;;;15.50;84.80;;;;;;10979468;32;20076;-73
2023/03/08 20:29:27;;;;;;;12.25;9.15;;;15.40;84.70;;;;;;10982331;32;20011;-73
2023/03/08 20:35:30;;;;;;;12.70;9.45;;;15.20;84.90;;;;;;10982793;32;20399;-73
2023/03/08 20:41:32;;;;;;;13.60;11.77;;;15.20;84.80;;;;;;10981888;32;20053;-73
2023/03/08 20:47:35;;;;;;;17.23;11.12;;;14.90;84.90;;;;;;10979843;32;20085;-73
2023/03/08 20:53:38;;;;;;;16.80;11.35;;;14.90;84.80;;;;;;10981613;32;20016;-73
2023/03/08 20:59:41;;;;;;;16.15;11.48;;;14.90;84.40;;;;;;10982397;32;20053;-73
2023/03/08 21:05:43;;;;;;;22.00;13.75;;;15.00;84.30;;;;;;10978662;32;20015;-73
2023/03/08 21:11:45;;;;;;;16.65;11.95;;;14.80;84.20;;;;;;10982306;32;20060;-73
2023/03/08 21:17:48;;;;;;;13.27;10.18;;;14.90;84.10;;;;;;10978129;32;20041;-73
2023/03/08 21:23:53;;;;;;;14.87;11.60;;;14.90;83.90;;;;;;10980140;32;20045;-73
2023/03/08 21:29:55;;;;;;;13.80;10.50;;;14.80;83.90;;;;;;10980991;32;20010;-73
2023/03/08 21:36:27;;;;;;;17.95;15.63;;;14.80;83.90;;;;;;10979634;32;20027;-73
2023/03/08 21:42:29;;;;;;;15.45;10.43;;;14.70;83.90;;;;;;10980677;32;20434;-73
2023/03/08 21:48:31;;;;;;;13.80;11.82;;;14.60;84.20;;;;;;10980765;32;20023;-73
2023/03/08 21:54:33;;;;;;;17.58;14.00;;;14.60;84.30;;;;;;10888444;32;20023;-73
2023/03/08 22:00:36;;;;;;;20.05;12.65;;;14.70;84.60;;;;;;10900598;32;20034;-73
2023/03/08 22:06:38;;;;;;;14.25;10.80;;;14.70;84.30;;;;;;10901088;32;20401;-73
2023/03/08 22:12:43;;;;;;;24.30;13.20;;;14.60;84.40;;;;;;10900782;32;20027;-73
2023/03/08 22:18:45;;;;;;;17.08;12.75;;;14.60;84.40;;;;;;10900615;32;20402;-73
2023/03/08 22:24:48;;;;;;;19.42;15.82;;;14.60;84.30;;;;;;10953712;32;20034;-73
2023/03/08 22:30:50;;;;;;;14.57;11.23;;;14.60;84.50;;;;;;10979305;32;20011;-71
2023/03/08 22:36:53;;;;;;;15.20;11.77;;;14.60;84.40;;;;;;10952168;32;20049;-71
2023/03/08 22:42:55;;;;;;;17.40;12.27;;;14.40;84.60;;;;;;10978143;32;20023;-71
2023/03/08 22:48:58;;;;;;;12.75;10.23;;;14.40;84.50;;;;;;10971849;32;20061;-71
2023/03/08 22:55:00;;;;;;;15.18;10.27;;;14.50;84.50;;;;;;10985397;32;20023;-71
2023/03/08 23:01:02;;;;;;;11.63;9.00;;;14.50;84.40;;;;;;10971675;32;20053;-71
2023/03/08 23:07:04;;;;;;;17.77;13.25;;;14.50;84.50;;;;;;10971767;32;20462;-71
2023/03/08 23:13:06;;;;;;;14.15;10.13;;;14.40;84.50;;;;;;10984592;32;20018;-71
2023/03/08 23:19:15;;;;;;;18.60;11.38;;;14.40;84.60;;;;;;10985014;32;20042;-71
2023/03/08 23:25:17;;;;;;;14.25;10.02;;;14.40;84.40;;;;;;10981962;32;20037;-70
2023/03/08 23:31:22;;;;;;;15.60;11.60;;;14.40;84.50;;;;;;10983995;32;20385;-71
2023/03/08 23:37:24;;;;;;;16.08;11.98;;;14.50;84.80;;;;;;10984298;32;20377;-71
2023/03/08 23:43:26;;;;;;;16.55;13.82;;;14.50;84.60;;;;;;10970001;32;20034;-71
2023/03/08 23:49:28;;;;;;;14.65;11.55;;;14.30;84.50;;;;;;10984144;32;20015;-71
2023/03/08 23:55:30;;;;;;;12.43;11.23;;;14.20;84.70;;;;;;10968693;32;20019;-71
